Time;durP1;ratioP1;P1;durP2;ratioP2;P2;SDS_P1;SDS_P2;PMS_P1;PMS_P2;Temp;Humidity;BMP_temperature;BMP_pressure;BME280_temperature;BME280_humidity;BME280_pressure;Samples;Min_cycle;Max_cycle;Signal;HPM_P1;HPM_P2
2021/12/08 00:00:34;;;;;;;;;3.50;1.00;;;;;;;;5045114;28;11475;-79
2021/12/08 00:03:03;;;;;;;;;0.25;0.00;;;;;;;;5042324;28;10753;-79
2021/12/08 00:05:31;;;;;;;;;0.25;0.25;;;;;;;;5038462;28;10772;-79
2021/12/08 00:08:01;;;;;;;;;0.00;0.00;;;;;;;;5026510;28;10702;-79
2021/12/08 00:10:51;;;;;;;;;0.00;0.00;;;;;;;;5038271;28;10727;-79
2021/12/08 00:13:17;;;;;;;;;2.00;0.00;;;;;;;;5041387;28;10738;-78
2021/12/08 00:15:46;;;;;;;;;0.00;0.00;;;;;;;;5042971;28;11074;-78
2021/12/08 00:18:17;;;;;;;;;2.50;2.50;;;;;;;;5036280;28;10800;-78
2021/12/08 00:20:47;;;;;;;;;0.50;0.50;;;;;;;;5044268;28;10956;-79
2021/12/08 00:23:17;;;;;;;;;1.25;0.00;;;;;;;;5026053;28;10968;-78
2021/12/08 00:25:44;;;;;;;;;0.00;0.00;;;;;;;;5041044;28;10941;-78
2021/12/08 00:28:12;;;;;;;;;1.50;0.00;;;;;;;;5041337;28;10851;-78
2021/12/08 00:30:43;;;;;;;;;0.00;0.00;;;;;;;;5040750;28;10886;-78
2021/12/08 00:33:11;;;;;;;;;0.00;0.00;;;;;;;;5043781;28;10903;-79
2021/12/08 00:35:40;;;;;;;;;0.00;0.00;;;;;;;;5043318;28;11034;-78
2021/12/08 00:38:08;;;;;;;;;0.00;0.00;;;;;;;;5042296;28;10840;-78
2021/12/08 00:40:37;;;;;;;;;2.00;0.00;;;;;;;;5042884;28;10878;-77
2021/12/08 00:43:06;;;;;;;;;1.00;0.00;;;;;;;;5024287;28;11805;-78
2021/12/08 00:45:34;;;;;;;;;0.75;0.00;;;;;;;;5043629;28;11765;-78
2021/12/08 00:48:03;;;;;;;;;1.00;0.00;;;;;;;;5041454;28;10967;-78
2021/12/08 00:50:33;;;;;;;;;0.00;0.00;;;;;;;;5036664;28;10989;-78
2021/12/08 00:53:01;;;;;;;;;0.00;0.00;;;;;;;;5042295;28;11144;-78
2021/12/08 00:55:29;;;;;;;;;0.00;0.00;;;;;;;;5040452;28;11133;-79
2021/12/08 00:57:58;;;;;;;;;0.00;0.00;;;;;;;;5041224;28;11997;-79
2021/12/08 01:00:28;;;;;;;;;0.00;0.00;;;;;;;;5041922;28;10899;-78
2021/12/08 01:02:56;;;;;;;;;0.50;0.00;;;;;;;;5050141;28;11528;-79
2021/12/08 01:05:27;;;;;;;;;0.25;0.25;;;;;;;;5034017;28;11427;-78
2021/12/08 01:07:54;;;;;;;;;2.25;0.00;;;;;;;;5042482;28;11190;-78
2021/12/08 01:10:23;;;;;;;;;1.25;0.00;;;;;;;;5033845;28;11157;-79
2021/12/08 01:12:51;;;;;;;;;2.00;0.25;;;;;;;;5034052;28;11274;-78
2021/12/08 01:15:21;;;;;;;;;0.00;0.00;;;;;;;;5042479;28;11182;-77
2021/12/08 01:17:49;;;;;;;;;0.00;0.00;;;;;;;;5044202;28;11321;-78
2021/12/08 01:20:17;;;;;;;;;0.00;0.00;;;;;;;;5042986;28;11247;-78
2021/12/08 01:22:45;;;;;;;;;0.00;0.00;;;;;;;;5042061;28;11132;-78
2021/12/08 01:25:13;;;;;;;;;0.00;0.00;;;;;;;;5042275;28;13452;-78
2021/12/08 01:27:41;;;;;;;;;0.00;0.00;;;;;;;;5041952;28;12058;-77
2021/12/08 01:30:10;;;;;;;;;0.00;0.00;;;;;;;;5041628;28;11234;-78
2021/12/08 01:32:39;;;;;;;;;0.00;0.00;;;;;;;;5042985;28;12450;-79
2021/12/08 01:35:07;;;;;;;;;1.50;0.00;;;;;;;;5041819;28;11219;-79
2021/12/08 01:37:35;;;;;;;;;1.25;0.00;;;;;;;;5043909;28;11136;-78
2021/12/08 01:40:02;;;;;;;;;0.00;0.00;;;;;;;;5041373;28;11308;-79
2021/12/08 01:42:35;;;;;;;;;1.50;0.00;;;;;;;;5047499;28;11225;-79
2021/12/08 01:47:48;;;;;;;;;0.00;0.00;;;;;;;;5033273;28;11404;-79
2021/12/08 01:50:16;;;;;;;;;0.00;0.00;;;;;;;;5048507;28;11134;-79
2021/12/08 01:52:43;;;;;;;;;1.00;0.00;;;;;;;;5042413;28;11228;-78
2021/12/08 01:55:11;;;;;;;;;0.25;0.00;;;;;;;;5042350;28;11388;-78
2021/12/08 01:57:38;;;;;;;;;0.00;0.00;;;;;;;;5044926;28;11483;-79
2021/12/08 02:00:10;;;;;;;;;0.00;0.00;;;;;;;;5042208;28;11391;-78
2021/12/08 02:02:38;;;;;;;;;0.50;0.50;;;;;;;;5039437;28;11382;-77
2021/12/08 02:05:08;;;;;;;;;0.00;0.00;;;;;;;;5037127;28;11417;-77
2021/12/08 02:07:35;;;;;;;;;0.00;0.00;;;;;;;;5046522;28;11383;-79
2021/12/08 02:10:03;;;;;;;;;0.00;0.00;;;;;;;;5042330;28;11399;-78
2021/12/08 02:12:34;;;;;;;;;0.00;0.00;;;;;;;;5048730;28;11263;-78
2021/12/08 02:15:01;;;;;;;;;0.00;0.00;;;;;;;;5049815;28;11210;-79
2021/12/08 02:17:28;;;;;;;;;1.00;0.00;;;;;;;;5050303;28;11363;-79
2021/12/08 02:19:56;;;;;;;;;0.25;0.25;;;;;;;;5045628;28;11266;-78
2021/12/08 02:22:25;;;;;;;;;1.50;0.00;;;;;;;;5044874;28;11527;-78
2021/12/08 02:24:52;;;;;;;;;0.00;0.00;;;;;;;;5045965;28;11960;-79
2021/12/08 02:27:19;;;;;;;;;0.75;0.75;;;;;;;;5045357;28;11214;-79
2021/12/08 02:29:52;;;;;;;;;0.00;0.00;;;;;;;;5046289;28;11400;-78
2021/12/08 02:46:35;;;;;;;;;1.00;1.00;;;;;;;;5044017;28;11415;-78
2021/12/08 02:49:03;;;;;;;;;0.00;0.00;;;;;;;;5040188;28;12117;-79
2021/12/08 02:51:30;;;;;;;;;0.00;0.00;;;;;;;;5045286;28;13013;-79
2021/12/08 02:54:00;;;;;;;;;0.00;0.00;;;;;;;;5044577;28;11374;-79
2021/12/08 02:56:28;;;;;;;;;0.00;0.00;;;;;;;;5045626;28;12123;-79
2021/12/08 02:58:55;;;;;;;;;0.00;0.00;;;;;;;;5052938;28;11388;-79
2021/12/08 03:01:22;;;;;;;;;1.25;0.00;;;;;;;;5044840;28;11362;-78
2021/12/08 03:03:50;;;;;;;;;0.00;0.00;;;;;;;;5041604;28;11375;-79
2021/12/08 03:06:17;;;;;;;;;0.00;0.00;;;;;;;;5044926;28;11429;-78
2021/12/08 03:08:45;;;;;;;;;0.00;0.00;;;;;;;;5046555;28;11504;-78
2021/12/08 03:11:14;;;;;;;;;0.00;0.00;;;;;;;;5042263;28;12116;-77
2021/12/08 03:13:45;;;;;;;;;0.50;0.00;;;;;;;;5034311;28;11429;-77
2021/12/08 03:16:14;;;;;;;;;0.00;0.00;;;;;;;;5033415;28;11406;-79
2021/12/08 03:18:42;;;;;;;;;0.00;0.00;;;;;;;;5035620;28;11397;-79
2021/12/08 03:21:11;;;;;;;;;0.00;0.00;;;;;;;;5041384;28;12155;-78
2021/12/08 03:23:49;;;;;;;;;0.00;0.00;;;;;;;;5050327;28;11391;-78
2021/12/08 03:26:26;;;;;;;;;0.00;0.00;;;;;;;;5044380;28;11443;-79
2021/12/08 03:29:00;;;;;;;;;0.00;0.00;;;;;;;;5048677;28;11401;-78
2021/12/08 03:31:32;;;;;;;;;0.25;0.00;;;;;;;;5045912;28;11399;-79
2021/12/08 03:34:00;;;;;;;;;0.00;0.00;;;;;;;;5044798;28;11378;-79
2021/12/08 03:36:28;;;;;;;;;0.00;0.00;;;;;;;;5029665;28;11470;-79
2021/12/08 03:38:55;;;;;;;;;0.00;0.00;;;;;;;;5043030;28;11399;-79
2021/12/08 03:41:26;;;;;;;;;0.00;0.00;;;;;;;;5049204;28;11433;-78
2021/12/08 03:43:53;;;;;;;;;0.00;0.00;;;;;;;;5044089;28;12222;-79
2021/12/08 03:46:26;;;;;;;;;2.00;0.75;;;;;;;;5025468;28;11416;-79
2021/12/08 03:48:53;;;;;;;;;1.25;0.00;;;;;;;;5044274;28;11411;-78
2021/12/08 03:51:21;;;;;;;;;2.00;0.00;;;;;;;;5024910;28;11441;-79
2021/12/08 03:53:48;;;;;;;;;0.00;0.00;;;;;;;;5046006;28;12792;-79
2021/12/08 03:56:16;;;;;;;;;0.00;0.00;;;;;;;;5045718;28;11403;-79
2021/12/08 03:58:45;;;;;;;;;0.00;0.00;;;;;;;;5049108;28;11504;-79
2021/12/08 04:01:12;;;;;;;;;0.00;0.00;;;;;;;;5045498;28;11356;-79
2021/12/08 04:03:47;;;;;;;;;0.00;0.00;;;;;;;;5042576;28;11403;-79
2021/12/08 04:06:27;;;;;;;;;0.00;0.00;;;;;;;;5043721;28;11486;-79
2021/12/08 04:08:56;;;;;;;;;0.00;0.00;;;;;;;;5045200;28;11411;-78
2021/12/08 04:11:25;;;;;;;;;1.50;0.00;;;;;;;;5043919;28;11397;-79
2021/12/08 04:13:57;;;;;;;;;0.00;0.00;;;;;;;;5047821;28;11478;-79
2021/12/08 04:16:33;;;;;;;;;0.00;0.00;;;;;;;;5042528;28;11538;-79
2021/12/08 04:19:01;;;;;;;;;0.00;0.00;;;;;;;;5041728;28;11441;-79
2021/12/08 04:21:30;;;;;;;;;0.00;0.00;;;;;;;;5040552;28;11396;-79
2021/12/08 04:23:57;;;;;;;;;1.25;0.00;;;;;;;;5044542;28;11392;-78
2021/12/08 04:26:28;;;;;;;;;0.00;0.00;;;;;;;;5040304;28;11374;-78
2021/12/08 04:28:57;;;;;;;;;0.00;0.00;;;;;;;;5042090;28;11398;-79
2021/12/08 04:31:27;;;;;;;;;0.00;0.00;;;;;;;;5042213;28;11340;-78
2021/12/08 04:34:00;;;;;;;;;0.00;0.00;;;;;;;;5042415;28;11387;-78
2021/12/08 04:36:31;;;;;;;;;0.50;0.00;;;;;;;;5041715;28;11451;-78
2021/12/08 04:39:02;;;;;;;;;0.00;0.00;;;;;;;;5046687;28;11402;-77
2021/12/08 04:41:36;;;;;;;;;1.00;0.00;;;;;;;;5043256;28;11490;-78
2021/12/08 04:44:18;;;;;;;;;0.00;0.00;;;;;;;;5051007;28;11371;-79
2021/12/08 04:47:01;;;;;;;;;1.25;0.00;;;;;;;;5041704;28;11391;-79
2021/12/08 04:49:55;;;;;;;;;0.00;0.00;;;;;;;;5042590;28;11430;-78
2021/12/08 04:52:35;;;;;;;;;0.00;0.00;;;;;;;;5042557;28;11385;-78
2021/12/08 05:01:07;;;;;;;;;0.00;0.00;;;;;;;;5041644;28;11336;-79
2021/12/08 05:03:45;;;;;;;;;0.00;0.00;;;;;;;;5043025;28;11460;-79
2021/12/08 05:06:23;;;;;;;;;1.25;0.00;;;;;;;;5023049;28;11382;-77
2021/12/08 05:08:53;;;;;;;;;0.00;0.00;;;;;;;;5042474;28;12526;-77
2021/12/08 05:11:26;;;;;;;;;1.50;0.00;;;;;;;;5044621;28;11405;-80
2021/12/08 05:13:58;;;;;;;;;1.25;0.00;;;;;;;;5044379;28;11378;-77
2021/12/08 05:16:29;;;;;;;;;1.00;0.00;;;;;;;;5043045;28;11420;-80
2021/12/08 05:18:58;;;;;;;;;1.00;1.00;;;;;;;;5042702;28;11360;-78
2021/12/08 05:21:30;;;;;;;;;0.00;0.00;;;;;;;;5050262;28;12036;-78
2021/12/08 05:24:05;;;;;;;;;0.00;0.00;;;;;;;;5050056;28;11418;-79
2021/12/08 05:26:36;;;;;;;;;1.00;0.00;;;;;;;;5040280;28;12194;-80
2021/12/08 05:29:10;;;;;;;;;1.00;1.00;;;;;;;;5037678;28;11484;-79
2021/12/08 05:31:38;;;;;;;;;2.50;0.00;;;;;;;;5030274;28;11368;-78
2021/12/08 05:34:06;;;;;;;;;0.00;0.00;;;;;;;;5034287;28;11404;-77
2021/12/08 05:36:34;;;;;;;;;0.00;0.00;;;;;;;;5017851;28;11378;-80
2021/12/08 05:39:04;;;;;;;;;0.00;0.00;;;;;;;;5029981;28;11406;-78
2021/12/08 05:41:33;;;;;;;;;2.00;2.00;;;;;;;;5031506;28;11416;-78
2021/12/08 05:44:01;;;;;;;;;5.00;2.00;;;;;;;;5035126;28;11447;-77
2021/12/08 05:46:33;;;;;;;;;1.00;1.00;;;;;;;;5038417;28;11413;-77
2021/12/08 05:49:02;;;;;;;;;1.00;1.00;;;;;;;;5032098;28;11383;-81
2021/12/08 05:51:32;;;;;;;;;2.50;2.50;;;;;;;;5037882;28;11455;-81
2021/12/08 05:54:04;;;;;;;;;3.50;3.50;;;;;;;;5036556;28;11481;-83
2021/12/08 05:56:32;;;;;;;;;6.00;6.00;;;;;;;;5037055;28;11497;-81
2021/12/08 05:59:01;;;;;;;;;3.50;3.50;;;;;;;;5040111;28;11497;-82
2021/12/08 06:01:31;;;;;;;;;5.00;2.00;;;;;;;;5023942;28;11579;-82
2021/12/08 06:03:59;;;;;;;;;4.50;2.00;;;;;;;;5035560;28;11420;-84
2021/12/08 06:06:29;;;;;;;;;5.00;3.00;;;;;;;;5025940;28;11542;-81
2021/12/08 06:08:57;;;;;;;;;1.50;0.00;;;;;;;;5019218;28;11586;-80
2021/12/08 06:11:27;;;;;;;;;0.00;0.00;;;;;;;;5030521;28;11400;-80
2021/12/08 06:13:59;;;;;;;;;0.00;0.00;;;;;;;;5037257;28;11383;-80
2021/12/08 06:16:27;;;;;;;;;0.00;0.00;;;;;;;;5027064;28;11507;-80
2021/12/08 06:18:54;;;;;;;;;0.00;0.00;;;;;;;;5041901;28;11422;-79
2021/12/08 06:21:25;;;;;;;;;4.25;1.00;;;;;;;;5019600;28;11431;-78
2021/12/08 06:23:54;;;;;;;;;1.00;0.50;;;;;;;;5040871;28;11391;-78
2021/12/08 06:26:23;;;;;;;;;2.00;0.00;;;;;;;;5017943;28;11427;-79
2021/12/08 06:28:51;;;;;;;;;1.00;0.00;;;;;;;;5040426;28;11441;-86
2021/12/08 06:31:20;;;;;;;;;0.00;0.00;;;;;;;;5018398;28;11347;-86
2021/12/08 06:33:47;;;;;;;;;0.00;0.00;;;;;;;;5025562;28;12728;-81
2021/12/08 06:36:17;;;;;;;;;1.50;0.00;;;;;;;;5039798;28;11465;-87
2021/12/08 06:38:45;;;;;;;;;1.25;0.00;;;;;;;;5013987;28;12202;-80
2021/12/08 06:41:20;;;;;;;;;0.00;0.00;;;;;;;;5039166;28;12190;-80
2021/12/08 06:43:52;;;;;;;;;0.00;0.00;;;;;;;;5038914;28;11486;-83
2021/12/08 06:46:21;;;;;;;;;2.00;0.25;;;;;;;;5066256;28;11400;-85
2021/12/08 06:48:51;;;;;;;;;0.00;0.00;;;;;;;;5047490;28;11612;-82
2021/12/08 06:51:22;;;;;;;;;0.00;0.00;;;;;;;;5044751;28;12331;-79
2021/12/08 06:54:01;;;;;;;;;0.00;0.00;;;;;;;;5031570;28;12294;-83
2021/12/08 06:56:33;;;;;;;;;4.25;0.00;;;;;;;;5046694;28;11463;-81
2021/12/08 06:59:06;;;;;;;;;2.00;0.00;;;;;;;;5047598;28;11419;-86
2021/12/08 07:01:42;;;;;;;;;1.00;1.00;;;;;;;;5046394;28;11527;-86
2021/12/08 07:04:27;;;;;;;;;4.00;0.50;;;;;;;;5045920;28;11394;-83
2021/12/08 07:07:00;;;;;;;;;2.00;2.00;;;;;;;;5025747;28;11608;-86
2021/12/08 07:14:42;;;;;;;;;6.00;4.00;;;;;;;;5007696;28;11717;-80
2021/12/08 07:17:14;;;;;;;;;6.00;5.00;;;;;;;;5028057;28;11544;-78
2021/12/08 07:19:45;;;;;;;;;1.25;1.25;;;;;;;;5021931;28;12293;-77
2021/12/08 07:22:16;;;;;;;;;1.25;0.00;;;;;;;;5023526;28;11688;-80
2021/12/08 07:24:46;;;;;;;;;0.25;0.00;;;;;;;;5024050;28;11584;-79
2021/12/08 07:27:18;;;;;;;;;2.00;1.00;;;;;;;;5018296;28;11531;-83
2021/12/08 07:29:49;;;;;;;;;0.50;0.00;;;;;;;;5014856;28;12172;-82
2021/12/08 07:32:21;;;;;;;;;1.00;1.00;;;;;;;;5008567;28;11411;-79
2021/12/08 07:34:51;;;;;;;;;1.00;1.00;;;;;;;;5025789;28;11529;-81
2021/12/08 07:37:23;;;;;;;;;5.00;0.00;;;;;;;;5021877;28;11660;-79
2021/12/08 07:39:57;;;;;;;;;2.75;1.00;;;;;;;;5024069;28;11469;-78
2021/12/08 07:42:28;;;;;;;;;0.75;0.75;;;;;;;;5024825;28;11513;-79
2021/12/08 07:45:00;;;;;;;;;0.00;0.00;;;;;;;;5017968;28;11699;-80
2021/12/08 07:47:28;;;;;;;;;2.00;0.75;;;;;;;;5014735;28;11478;-81
2021/12/08 07:49:58;;;;;;;;;2.50;0.25;;;;;;;;5020495;28;12309;-80
2021/12/08 07:52:30;;;;;;;;;0.00;0.00;;;;;;;;5024240;28;11497;-81
2021/12/08 07:54:58;;;;;;;;;0.00;0.00;;;;;;;;5022781;28;11495;-81
2021/12/08 07:57:28;;;;;;;;;1.00;0.00;;;;;;;;5023705;28;11487;-80
2021/12/08 08:00:01;;;;;;;;;1.75;0.25;;;;;;;;5022449;28;12342;-80
2021/12/08 08:02:29;;;;;;;;;0.00;0.00;;;;;;;;5021824;28;11587;-80
2021/12/08 08:05:00;;;;;;;;;2.00;0.00;;;;;;;;5024103;28;11614;-80
2021/12/08 08:07:28;;;;;;;;;1.25;1.25;;;;;;;;5022888;28;11479;-81
2021/12/08 08:10:00;;;;;;;;;0.00;0.00;;;;;;;;5022088;28;11643;-80
2021/12/08 08:12:31;;;;;;;;;1.00;1.00;;;;;;;;5017146;28;11569;-80
2021/12/08 08:15:04;;;;;;;;;0.00;0.00;;;;;;;;5016280;28;11653;-80
2021/12/08 08:17:37;;;;;;;;;1.00;1.00;;;;;;;;5026555;28;11515;-83
2021/12/08 08:20:07;;;;;;;;;0.25;0.25;;;;;;;;5019537;28;11597;-82
2021/12/08 08:22:35;;;;;;;;;0.00;0.00;;;;;;;;5018253;28;11524;-85
2021/12/08 08:25:04;;;;;;;;;0.25;0.25;;;;;;;;5019400;28;11536;-82
2021/12/08 08:27:32;;;;;;;;;2.00;0.00;;;;;;;;5003331;28;11470;-83
2021/12/08 08:30:02;;;;;;;;;2.00;0.00;;;;;;;;5021243;28;11543;-83
2021/12/08 08:32:34;;;;;;;;;1.00;0.00;;;;;;;;5028447;28;11374;-83
2021/12/08 08:35:06;;;;;;;;;1.00;1.00;;;;;;;;5023837;28;11396;-85
2021/12/08 08:37:33;;;;;;;;;0.00;0.00;;;;;;;;5045087;28;11398;-86
2021/12/08 08:40:08;;;;;;;;;1.00;1.00;;;;;;;;5043346;28;11402;-77
2021/12/08 08:42:38;;;;;;;;;0.00;0.00;;;;;;;;5024378;28;11409;-84
2021/12/08 08:45:12;;;;;;;;;0.75;0.50;;;;;;;;5042969;28;11407;-79
2021/12/08 08:47:45;;;;;;;;;0.50;0.00;;;;;;;;5039786;28;11529;-82
2021/12/08 08:50:18;;;;;;;;;1.00;1.00;;;;;;;;5036536;28;12058;-82
2021/12/08 08:52:48;;;;;;;;;0.75;0.75;;;;;;;;5036790;28;11393;-80
2021/12/08 08:55:20;;;;;;;;;0.25;0.25;;;;;;;;5023954;28;11590;-82
2021/12/08 08:57:49;;;;;;;;;3.00;0.50;;;;;;;;5024530;28;11489;-83
2021/12/08 09:00:23;;;;;;;;;2.50;1.00;;;;;;;;5012031;28;11388;-82
2021/12/08 09:02:52;;;;;;;;;0.00;0.00;;;;;;;;5044335;28;11453;-83
2021/12/08 09:05:22;;;;;;;;;0.00;0.00;;;;;;;;5043463;28;11407;-82
2021/12/08 09:07:53;;;;;;;;;7.75;3.00;;;;;;;;5044366;28;11442;-82
2021/12/08 09:10:23;;;;;;;;;0.75;0.75;;;;;;;;5044193;28;11416;-82
2021/12/08 09:12:52;;;;;;;;;1.00;0.00;;;;;;;;5026267;28;11425;-82
2021/12/08 09:15:25;;;;;;;;;1.00;0.00;;;;;;;;5044266;28;12164;-82
2021/12/08 09:17:57;;;;;;;;;5.00;0.00;;;;;;;;5025327;28;11396;-81
2021/12/08 09:20:29;;;;;;;;;1.25;0.50;;;;;;;;5043879;28;11419;-82
2021/12/08 09:23:00;;;;;;;;;0.00;0.00;;;;;;;;5024817;28;11459;-81
2021/12/08 09:25:32;;;;;;;;;0.50;0.50;;;;;;;;5022564;28;11430;-82
2021/12/08 09:28:02;;;;;;;;;0.00;0.00;;;;;;;;5043952;28;11498;-82
2021/12/08 09:30:36;;;;;;;;;0.25;0.00;;;;;;;;5025046;28;11401;-82
2021/12/08 09:33:06;;;;;;;;;0.00;0.00;;;;;;;;5024706;28;11403;-82
2021/12/08 09:35:36;;;;;;;;;0.25;0.00;;;;;;;;5023224;28;11534;-82
2021/12/08 09:38:10;;;;;;;;;2.50;0.00;;;;;;;;5037944;28;11516;-82
2021/12/08 09:40:41;;;;;;;;;0.25;0.25;;;;;;;;5031856;28;11437;-82
2021/12/08 09:43:13;;;;;;;;;0.00;0.00;;;;;;;;5043518;28;11416;-81
2021/12/08 09:45:47;;;;;;;;;2.00;0.00;;;;;;;;5043710;28;11388;-82
2021/12/08 09:48:16;;;;;;;;;0.50;0.50;;;;;;;;5043138;28;11395;-81
2021/12/08 09:50:43;;;;;;;;;0.00;0.00;;;;;;;;5041066;28;11535;-83
2021/12/08 09:53:11;;;;;;;;;0.00;0.00;;;;;;;;5042939;28;11504;-83
2021/12/08 09:55:39;;;;;;;;;0.00;0.00;;;;;;;;5030484;28;11478;-80
2021/12/08 09:58:08;;;;;;;;;0.00;0.00;;;;;;;;5043785;28;11396;-82
2021/12/08 10:00:38;;;;;;;;;0.00;0.00;;;;;;;;5042186;28;11325;-81
2021/12/08 10:03:08;;;;;;;;;0.50;0.00;;;;;;;;5044362;28;11384;-79
2021/12/08 10:05:39;;;;;;;;;0.00;0.00;;;;;;;;5024787;28;11339;-81
2021/12/08 10:08:07;;;;;;;;;2.00;1.00;;;;;;;;5026851;28;11536;-81
2021/12/08 10:10:36;;;;;;;;;0.00;0.00;;;;;;;;5043310;28;11400;-80
2021/12/08 10:13:03;;;;;;;;;0.00;0.00;;;;;;;;5043766;28;11392;-82
2021/12/08 10:15:31;;;;;;;;;0.25;0.25;;;;;;;;5043464;28;11151;-81
2021/12/08 10:17:59;;;;;;;;;0.00;0.00;;;;;;;;5042815;28;11198;-80
2021/12/08 10:20:31;;;;;;;;;0.00;0.00;;;;;;;;5026282;28;11150;-82
2021/12/08 10:23:15;;;;;;;;;1.00;1.00;;;;;;;;5024953;28;10978;-82
2021/12/08 10:25:46;;;;;;;;;0.00;0.00;;;;;;;;5043698;28;11140;-81
2021/12/08 10:28:17;;;;;;;;;0.25;0.25;;;;;;;;5042507;28;11238;-81
2021/12/08 10:30:48;;;;;;;;;0.00;0.00;;;;;;;;5042689;28;11065;-81
2021/12/08 10:34:03;;;;;;;;;0.00;0.00;;;;;;;;5046881;28;10971;-85
2021/12/08 10:39:27;;;;;;;;;2.00;0.00;;;;;;;;5020625;28;10941;-81
2021/12/08 10:42:01;;;;;;;;;0.00;0.00;;;;;;;;5032693;28;10870;-81
2021/12/08 10:44:36;;;;;;;;;0.00;0.00;;;;;;;;5028320;28;10937;-80
2021/12/08 10:47:04;;;;;;;;;1.25;1.25;;;;;;;;5046933;28;10734;-82
2021/12/08 10:55:04;;;;;;;;;0.00;0.00;;;;;;;;5027117;28;10495;-83
2021/12/08 10:57:34;;;;;;;;;1.75;0.25;;;;;;;;5026343;28;10486;-82
2021/12/08 11:00:07;;;;;;;;;0.00;0.00;;;;;;;;5040420;28;10464;-82
2021/12/08 11:02:49;;;;;;;;;0.00;0.00;;;;;;;;5045636;28;11060;-81
2021/12/08 11:08:01;;;;;;;;;0.00;0.00;;;;;;;;5003942;22;10320;-82
2021/12/08 11:13:11;;;;;;;;;0.00;0.00;;;;;;;;4968963;28;11241;-82
2021/12/08 11:15:40;;;;;;;;;1.00;0.00;;;;;;;;5006141;28;10377;-81
2021/12/08 11:18:10;;;;;;;;;0.00;0.00;;;;;;;;5006137;28;10188;-81
2021/12/08 11:20:46;;;;;;;;;1.00;0.00;;;;;;;;5007338;28;10104;-80
2021/12/08 11:23:18;;;;;;;;;0.00;0.00;;;;;;;;5006160;28;9976;-82
2021/12/08 11:25:50;;;;;;;;;0.25;0.25;;;;;;;;5004885;28;10036;-81
2021/12/08 11:28:24;;;;;;;;;0.00;0.00;;;;;;;;5003380;28;10881;-81
2021/12/08 11:30:53;;;;;;;;;0.00;0.00;;;;;;;;4997181;28;9878;-81
2021/12/08 11:33:23;;;;;;;;;0.00;0.00;;;;;;;;5007048;28;10110;-81
2021/12/08 11:36:08;;;;;;;;;0.00;0.00;;;;;;;;4987315;28;10199;-81
2021/12/08 11:38:37;;;;;;;;;0.00;0.00;;;;;;;;5006344;28;10244;-81
2021/12/08 11:41:11;;;;;;;;;0.00;0.00;;;;;;;;5005898;28;10219;-81
2021/12/08 11:49:12;;;;;;;;;0.00;0.00;;;;;;;;5022202;28;10240;-81
2021/12/08 11:51:58;;;;;;;;;0.00;0.00;;;;;;;;5022787;28;10047;-81
2021/12/08 11:54:36;;;;;;;;;0.00;0.00;;;;;;;;4996525;28;9807;-81
2021/12/08 12:00:28;;;;;;;;;2.00;0.00;;;;;;;;5064497;23;9609;-81
2021/12/08 12:03:00;;;;;;;;;1.00;1.00;;;;;;;;5008691;28;9697;-80
2021/12/08 12:05:30;;;;;;;;;1.00;1.00;;;;;;;;5012319;28;9644;-82
2021/12/08 12:07:59;;;;;;;;;0.00;0.00;;;;;;;;5023441;28;9891;-82
2021/12/08 12:10:30;;;;;;;;;1.00;1.00;;;;;;;;5019145;28;9634;-81
2021/12/08 12:12:57;;;;;;;;;1.00;1.00;;;;;;;;5024846;28;9731;-82
2021/12/08 12:15:25;;;;;;;;;3.00;3.00;;;;;;;;5009118;28;9942;-78
2021/12/08 12:17:53;;;;;;;;;0.00;0.00;;;;;;;;5014640;28;9645;-85
2021/12/08 12:20:28;;;;;;;;;1.75;1.75;;;;;;;;4997102;28;9422;-81
2021/12/08 12:23:14;;;;;;;;;5.75;5.25;;;;;;;;5013728;28;9485;-82
2021/12/08 12:25:57;;;;;;;;;3.00;0.00;;;;;;;;5004496;28;9782;-82
2021/12/08 12:29:00;;;;;;;;;0.00;0.00;;;;;;;;5006972;28;9361;-79
2021/12/08 12:31:31;;;;;;;;;2.00;0.00;;;;;;;;4989819;28;9282;-82
2021/12/08 12:33:59;;;;;;;;;2.00;0.00;;;;;;;;5008362;28;9566;-76
2021/12/08 12:36:29;;;;;;;;;0.00;0.00;;;;;;;;5013105;28;9584;-79
2021/12/08 12:39:12;;;;;;;;;0.25;0.00;;;;;;;;5004102;28;9768;-79
2021/12/08 12:41:41;;;;;;;;;0.00;0.00;;;;;;;;5004172;28;9964;-79
2021/12/08 12:44:19;;;;;;;;;0.00;0.00;;;;;;;;5005298;28;9972;-80
2021/12/08 12:47:15;;;;;;;;;1.00;1.00;;;;;;;;5005418;28;10179;-80
2021/12/08 12:49:46;;;;;;;;;0.00;0.00;;;;;;;;5010913;28;10182;-78
2021/12/08 12:52:14;;;;;;;;;0.00;0.00;;;;;;;;5006653;28;10176;-80
2021/12/08 12:54:43;;;;;;;;;1.00;1.00;;;;;;;;4986521;28;10486;-80
2021/12/08 12:57:12;;;;;;;;;0.00;0.00;;;;;;;;5004694;28;10329;-80
2021/12/08 12:59:43;;;;;;;;;1.00;1.00;;;;;;;;5004114;28;10450;-80
2021/12/08 13:02:13;;;;;;;;;1.00;1.00;;;;;;;;4987215;28;10527;-81
2021/12/08 13:04:57;;;;;;;;;1.75;1.75;;;;;;;;4985317;28;10465;-82
2021/12/08 13:07:26;;;;;;;;;0.00;0.00;;;;;;;;4998813;28;11341;-81
2021/12/08 13:09:54;;;;;;;;;1.25;1.25;;;;;;;;4985653;28;10541;-82
2021/12/08 13:12:26;;;;;;;;;1.00;1.00;;;;;;;;4984732;28;10582;-82
2021/12/08 13:15:10;;;;;;;;;1.00;1.00;;;;;;;;4983966;28;10511;-82
2021/12/08 13:17:38;;;;;;;;;0.25;0.25;;;;;;;;4989570;28;10387;-81
2021/12/08 13:20:09;;;;;;;;;1.00;1.00;;;;;;;;5002775;28;10560;-78
2021/12/08 13:22:53;;;;;;;;;0.00;0.00;;;;;;;;5005012;28;10608;-78
2021/12/08 13:25:41;;;;;;;;;2.00;0.25;;;;;;;;4985656;28;10490;-80
2021/12/08 13:28:15;;;;;;;;;0.00;0.00;;;;;;;;4995086;28;10467;-81
2021/12/08 13:30:50;;;;;;;;;0.00;0.00;;;;;;;;4990759;28;10459;-82
2021/12/08 13:33:27;;;;;;;;;0.00;0.00;;;;;;;;5003767;28;10528;-79
2021/12/08 13:35:56;;;;;;;;;1.25;0.00;;;;;;;;4992855;28;10407;-81
2021/12/08 13:38:24;;;;;;;;;0.00;0.00;;;;;;;;4991745;28;10649;-81
2021/12/08 13:40:54;;;;;;;;;0.00;0.00;;;;;;;;4999513;28;10489;-81
2021/12/08 13:43:40;;;;;;;;;0.00;0.00;;;;;;;;4983381;28;10504;-82
2021/12/08 13:46:08;;;;;;;;;0.00;0.00;;;;;;;;4983859;28;10738;-82
2021/12/08 13:48:36;;;;;;;;;0.00;0.00;;;;;;;;4990011;28;10480;-81
2021/12/08 13:51:18;;;;;;;;;2.00;0.50;;;;;;;;5002363;28;10559;-80
2021/12/08 13:53:45;;;;;;;;;1.25;0.00;;;;;;;;4983769;28;10779;-79
2021/12/08 13:56:12;;;;;;;;;0.25;0.25;;;;;;;;4986769;28;10494;-80
2021/12/08 13:58:41;;;;;;;;;0.00;0.00;;;;;;;;4992237;28;10482;-81
2021/12/08 14:01:17;;;;;;;;;2.00;0.50;;;;;;;;5002432;28;10335;-82
2021/12/08 14:03:48;;;;;;;;;1.25;1.25;;;;;;;;5003257;28;10427;-81
2021/12/08 14:06:16;;;;;;;;;2.00;1.00;;;;;;;;5000135;28;10656;-81
2021/12/08 14:08:45;;;;;;;;;0.25;0.25;;;;;;;;4995592;28;10588;-83
2021/12/08 14:11:15;;;;;;;;;1.00;1.00;;;;;;;;4997497;28;10397;-79
2021/12/08 14:13:47;;;;;;;;;2.00;0.00;;;;;;;;4989036;28;10467;-85
2021/12/08 14:16:16;;;;;;;;;0.00;0.00;;;;;;;;4996051;28;10260;-81
2021/12/08 14:18:45;;;;;;;;;0.25;0.25;;;;;;;;4998855;28;10395;-81
2021/12/08 14:21:15;;;;;;;;;0.00;0.00;;;;;;;;4988382;28;10322;-78
2021/12/08 14:23:45;;;;;;;;;0.00;0.00;;;;;;;;4988608;28;10288;-77
2021/12/08 14:26:14;;;;;;;;;0.50;0.50;;;;;;;;5005064;28;10352;-83
2021/12/08 14:28:49;;;;;;;;;1.00;1.00;;;;;;;;4999790;28;10457;-77
2021/12/08 14:31:26;;;;;;;;;3.00;1.00;;;;;;;;4988643;28;10355;-81
2021/12/08 14:34:17;;;;;;;;;6.25;2.00;;;;;;;;4989043;28;10438;-82
2021/12/08 14:36:49;;;;;;;;;0.00;0.00;;;;;;;;4994977;28;10639;-86
2021/12/08 14:39:22;;;;;;;;;3.25;1.75;;;;;;;;4990617;28;10354;-80
2021/12/08 14:41:53;;;;;;;;;2.50;2.50;;;;;;;;4997097;28;10575;-79
2021/12/08 14:44:25;;;;;;;;;2.00;2.00;;;;;;;;4992066;28;10703;-80
2021/12/08 14:46:59;;;;;;;;;3.00;1.75;;;;;;;;4990411;28;10609;-84
2021/12/08 14:49:30;;;;;;;;;2.00;2.00;;;;;;;;4999192;28;10544;-79
2021/12/08 14:52:02;;;;;;;;;2.00;2.00;;;;;;;;4990058;28;10667;-79
2021/12/08 14:54:31;;;;;;;;;3.00;3.00;;;;;;;;4992960;28;10577;-82
2021/12/08 14:57:08;;;;;;;;;2.75;2.75;;;;;;;;4990364;28;10481;-80
2021/12/08 14:59:41;;;;;;;;;5.00;2.25;;;;;;;;4993794;28;10574;-80
2021/12/08 15:02:08;;;;;;;;;2.50;1.00;;;;;;;;4998116;28;10575;-78
2021/12/08 15:04:38;;;;;;;;;0.00;0.00;;;;;;;;4999700;28;10497;-80
2021/12/08 15:07:07;;;;;;;;;0.00;0.00;;;;;;;;4994672;28;10550;-79
2021/12/08 15:09:36;;;;;;;;;0.75;0.75;;;;;;;;4987950;28;11464;-80
2021/12/08 15:12:05;;;;;;;;;0.75;0.75;;;;;;;;5000056;28;10515;-80
2021/12/08 15:14:41;;;;;;;;;0.00;0.00;;;;;;;;4990542;28;10663;-81
2021/12/08 15:17:08;;;;;;;;;1.00;1.00;;;;;;;;4995337;28;10631;-84
2021/12/08 15:19:36;;;;;;;;;0.00;0.00;;;;;;;;4997558;28;10540;-80
2021/12/08 15:22:10;;;;;;;;;1.00;1.00;;;;;;;;4979796;28;10536;-83
2021/12/08 15:24:38;;;;;;;;;1.00;1.00;;;;;;;;4994133;28;10687;-85
2021/12/08 15:27:15;;;;;;;;;1.00;1.00;;;;;;;;4997270;28;10494;-87
2021/12/08 15:29:45;;;;;;;;;2.25;1.50;;;;;;;;4987788;28;11683;-79
2021/12/08 15:32:17;;;;;;;;;1.00;1.00;;;;;;;;4993732;28;10678;-82
2021/12/08 15:34:44;;;;;;;;;1.75;1.75;;;;;;;;4991962;28;11174;-80
2021/12/08 15:37:16;;;;;;;;;1.00;1.00;;;;;;;;4997115;28;10557;-86
2021/12/08 15:39:56;;;;;;;;;0.75;0.75;;;;;;;;4990855;28;10623;-82
2021/12/08 15:42:24;;;;;;;;;1.75;1.75;;;;;;;;4999419;28;10553;-83
2021/12/08 15:44:55;;;;;;;;;0.75;0.75;;;;;;;;5001991;28;10653;-84
2021/12/08 15:47:23;;;;;;;;;1.00;1.00;;;;;;;;4995763;28;10566;-83
2021/12/08 15:49:51;;;;;;;;;4.00;1.75;;;;;;;;4994964;28;10511;-83
2021/12/08 15:52:20;;;;;;;;;0.00;0.00;;;;;;;;4997793;28;10742;-82
2021/12/08 15:54:48;;;;;;;;;1.00;1.00;;;;;;;;4993205;28;10535;-82
2021/12/08 15:57:17;;;;;;;;;3.00;1.00;;;;;;;;4998745;28;11803;-85